Decoded Metar for KMAW ( in ) (IATA:) | Meteo·Mobile Aviation Weather
aviador You're here:

KMAW Decoded Metar

in
Report Time2018-10-17 02:55:00
UTC Time2018-10-17 03:00:39
Flight Rules vfr VFR
Wind250° at 04 kt
W.Decomp.*RWY 18: 1.4 kt HW 3.8 kt RCW
RWY 32: 1.4 kt HW 3.8 kt LCW
W.Rank250° ranks 19
Current wind is below 250° avg. (7.5)
Visibility9999 m
Phenomena:N/A
Clouds:N/A
Expected CloudBase > 400 ft AGL from Temp-Dew spread
CeilingNone
Temp07°C
Dew Point06°C (93% RH)
AAT4.6°C
QNH1027 hPa
Raw Report
KMAW 170255Z AUTO 25004KT 10SM CLR 07/06 A3032 RMK AO2=

Extra information for KMAW:More info

Social comments